createdAt,value
2022-07-29T00:00:40.897Z,20.11
2022-07-29T00:03:29.107Z,20.04
2022-07-29T00:06:09.878Z,20.03
2022-07-29T00:08:57.873Z,19.97
2022-07-29T00:11:45.909Z,19.91
2022-07-29T00:14:36.084Z,19.84
2022-07-29T00:17:19.067Z,19.82
2022-07-29T00:20:00.615Z,19.80
2022-07-29T00:22:51.827Z,19.75
2022-07-29T00:25:40.040Z,19.71
2022-07-29T00:28:27.790Z,19.65
2022-07-29T00:31:18.052Z,19.59
2022-07-29T00:34:06.796Z,19.53
2022-07-29T00:36:53.822Z,19.53
2022-07-29T00:39:35.542Z,19.51
2022-07-29T00:42:23.768Z,19.49
2022-07-29T00:45:12.796Z,19.52
2022-07-29T00:47:55.993Z,19.51
2022-07-29T00:50:44.809Z,19.51
2022-07-29T00:53:27.085Z,19.52
2022-07-29T00:56:14.801Z,19.50
2022-07-29T00:59:05.830Z,19.49
2022-07-29T01:01:53.783Z,19.40
2022-07-29T01:04:43.764Z,19.36
2022-07-29T01:07:32.737Z,19.34
2022-07-29T01:10:17.800Z,19.29
2022-07-29T01:13:08.540Z,19.24
2022-07-29T01:15:54.501Z,19.19
2022-07-29T01:18:46.721Z,19.13
2022-07-29T01:21:56.704Z,19.03
2022-07-29T01:25:08.716Z,18.97
2022-07-29T01:28:16.726Z,18.99
2022-07-29T01:31:02.626Z,18.99
2022-07-29T01:33:59.701Z,19.02
2022-07-29T01:36:47.916Z,18.96
2022-07-29T01:39:41.703Z,18.97
2022-07-29T01:42:38.674Z,18.97
2022-07-29T01:45:30.697Z,19.05
2022-07-29T01:48:24.806Z,19.05
2022-07-29T01:51:11.940Z,19.09
2022-07-29T01:54:03.667Z,19.08
2022-07-29T01:56:53.669Z,19.05
2022-07-29T01:59:43.721Z,19.06
2022-07-29T02:02:26.885Z,19.08
2022-07-29T02:05:20.723Z,19.04
2022-07-29T02:08:10.659Z,19.06
2022-07-29T02:11:01.686Z,19.03
2022-07-29T02:13:52.651Z,19.03
2022-07-29T02:16:43.658Z,18.97
2022-07-29T02:19:27.009Z,18.97
2022-07-29T02:22:19.655Z,18.90
2022-07-29T02:25:14.110Z,18.92
2022-07-29T02:28:10.600Z,18.88
2022-07-29T02:31:00.662Z,18.87
2022-07-29T02:33:50.631Z,18.84
2022-07-29T02:36:33.620Z,18.77
2022-07-29T02:39:24.615Z,18.74
2022-07-29T02:42:09.432Z,18.63
2022-07-29T02:44:57.580Z,18.61
2022-07-29T02:47:50.602Z,18.55
2022-07-29T02:50:45.591Z,18.55
2022-07-29T02:53:35.595Z,18.51
2022-07-29T02:56:22.803Z,18.48
2022-07-29T02:59:19.575Z,18.41
2022-07-29T03:02:09.621Z,18.38
2022-07-29T03:05:00.632Z,18.39
2022-07-29T03:07:50.573Z,18.39
2022-07-29T03:10:39.585Z,18.36
2022-07-29T03:13:24.777Z,18.34
2022-07-29T03:16:13.601Z,18.27
2022-07-29T03:18:55.757Z,18.20
2022-07-29T03:21:43.674Z,18.14
2022-07-29T03:24:38.764Z,18.13
2022-07-29T03:27:27.550Z,18.12
2022-07-29T03:30:25.534Z,18.13
2022-07-29T03:33:13.331Z,18.12
2022-07-29T03:36:01.588Z,18.09
2022-07-29T03:38:52.718Z,18.01
2022-07-29T03:41:34.540Z,17.97
2022-07-29T03:44:23.715Z,17.94
2022-07-29T03:47:10.519Z,17.93
2022-07-29T03:50:02.503Z,17.92
2022-07-29T03:52:45.399Z,17.93
2022-07-29T03:55:37.540Z,17.93
2022-07-29T03:58:19.689Z,17.91
2022-07-29T04:01:08.504Z,17.86
2022-07-29T04:03:58.505Z,17.83
2022-07-29T04:06:48.582Z,17.81
2022-07-29T04:09:29.665Z,17.79
2022-07-29T04:12:18.472Z,17.82
2022-07-29T04:14:59.710Z,17.83
2022-07-29T04:17:47.444Z,17.85
2022-07-29T04:20:39.473Z,17.88
2022-07-29T04:23:27.698Z,17.87
2022-07-29T04:26:09.479Z,17.86
2022-07-29T04:28:58.446Z,17.87
2022-07-29T04:31:46.547Z,17.85
2022-07-29T04:34:34.666Z,17.80
2022-07-29T04:37:18.559Z,17.81
2022-07-29T04:40:06.698Z,17.80
2022-07-29T04:42:48.441Z,17.76
2022-07-29T04:45:31.182Z,17.72
2022-07-29T04:48:19.428Z,17.68
2022-07-29T04:51:07.434Z,17.64
2022-07-29T04:53:57.546Z,17.59
2022-07-29T04:56:39.146Z,17.55
2022-07-29T04:59:27.406Z,17.52
2022-07-29T05:02:15.667Z,17.50
2022-07-29T05:04:57.406Z,17.44
2022-07-29T05:07:45.535Z,17.42
2022-07-29T05:10:29.101Z,17.46
2022-07-29T05:13:16.517Z,17.48
2022-07-29T05:15:59.319Z,17.52
2022-07-29T05:18:48.438Z,17.57
2022-07-29T05:21:29.566Z,17.59
2022-07-29T05:24:17.782Z,17.63
2022-07-29T05:27:00.571Z,17.66
2022-07-29T05:29:48.355Z,17.73
2022-07-29T05:32:29.937Z,17.79
2022-07-29T05:35:19.355Z,17.86
2022-07-29T05:38:07.366Z,17.94
2022-07-29T05:40:55.347Z,18.05
2022-07-29T05:43:38.670Z,18.15
2022-07-29T05:46:27.393Z,18.24
2022-07-29T05:49:08.606Z,18.28
2022-07-29T05:51:57.371Z,18.34
2022-07-29T05:54:38.540Z,18.43
2022-07-29T05:57:28.357Z,18.52
2022-07-29T06:00:12.790Z,18.62
2022-07-29T06:03:01.319Z,18.74
2022-07-29T06:05:49.305Z,19.96
2022-07-29T06:08:37.564Z,21.77
2022-07-29T06:11:18.310Z,23.08
2022-07-29T06:14:06.292Z,24.20
2022-07-29T06:16:49.597Z,25.07
2022-07-29T06:19:38.289Z,25.76
2022-07-29T06:22:19.513Z,26.22
2022-07-29T06:25:07.286Z,26.95
2022-07-29T06:27:55.267Z,27.58
2022-07-29T06:30:43.541Z,28.24
2022-07-29T06:33:29.498Z,28.87
2022-07-29T06:36:18.288Z,29.45
2022-07-29T06:39:06.260Z,30.06
2022-07-29T06:41:56.479Z,30.22
2022-07-29T06:44:38.295Z,30.69
2022-07-29T06:47:19.703Z,30.75
2022-07-29T06:50:09.255Z,31.43
2022-07-29T06:52:57.506Z,31.44
2022-07-29T06:55:38.295Z,31.79
2022-07-29T06:58:26.727Z,31.96
2022-07-29T07:01:11.278Z,32.21
2022-07-29T07:04:01.229Z,32.36
2022-07-29T07:06:51.221Z,32.05
2022-07-29T07:09:41.030Z,31.97
2022-07-29T07:12:22.428Z,32.18
2022-07-29T07:15:11.223Z,32.57
2022-07-29T07:17:53.456Z,32.82
2022-07-29T07:20:41.209Z,32.91
2022-07-29T07:23:31.218Z,32.91
2022-07-29T07:26:12.983Z,32.86
2022-07-29T07:29:01.343Z,33.46
2022-07-29T07:31:43.084Z,34.27
2022-07-29T07:34:31.201Z,34.49
2022-07-29T07:37:13.012Z,34.34
2022-07-29T07:40:03.189Z,34.43
2022-07-29T07:42:51.181Z,34.44
2022-07-29T07:45:33.626Z,34.32
2022-07-29T07:48:21.221Z,34.43
2022-07-29T07:51:02.413Z,34.15
2022-07-29T07:53:52.217Z,34.31
2022-07-29T07:56:35.558Z,34.52
2022-07-29T07:59:23.185Z,34.65
2022-07-29T08:02:04.526Z,34.73
2022-07-29T08:04:52.167Z,34.82
2022-07-29T08:07:33.396Z,34.96
2022-07-29T08:10:22.153Z,35.16
2022-07-29T08:13:05.383Z,35.18
2022-07-29T08:15:53.145Z,34.96
2022-07-29T08:18:35.359Z,35.26
2022-07-29T08:21:24.158Z,35.19
2022-07-29T08:24:26.126Z,34.89
2022-07-29T08:27:40.807Z,35.21
2022-07-29T08:30:30.124Z,35.42
2022-07-29T08:33:18.134Z,35.64
2022-07-29T08:35:59.352Z,36.03
2022-07-29T08:38:47.111Z,36.39
2022-07-29T08:41:36.138Z,36.44
2022-07-29T08:44:31.058Z,36.45
2022-07-29T08:47:14.125Z,36.24
2022-07-29T08:50:02.101Z,36.43
2022-07-29T08:52:45.355Z,36.37
2022-07-29T08:55:33.205Z,36.55
2022-07-29T08:58:15.680Z,36.19
2022-07-29T09:01:05.164Z,36.04
2022-07-29T09:03:59.139Z,36.05
2022-07-29T09:06:52.094Z,36.56
2022-07-29T09:09:33.792Z,36.44
2022-07-29T09:12:29.319Z,36.37
2022-07-29T09:15:12.315Z,36.18
2022-07-29T09:18:00.067Z,35.78
2022-07-29T09:21:08.098Z,35.25
2022-07-29T09:24:03.812Z,35.42
2022-07-29T09:26:55.374Z,35.73
2022-07-29T09:29:51.045Z,35.21
2022-07-29T09:32:40.064Z,35.09
2022-07-29T09:35:27.287Z,35.10
2022-07-29T09:38:23.072Z,35.01
2022-07-29T09:41:09.115Z,34.47
2022-07-29T09:44:03.151Z,34.45
2022-07-29T09:46:44.370Z,34.66
2022-07-29T09:49:32.145Z,34.90
2022-07-29T09:52:15.316Z,34.75
2022-07-29T09:55:18.157Z,34.66
2022-07-29T09:57:59.267Z,34.57
2022-07-29T10:00:51.117Z,34.52
2022-07-29T10:03:39.076Z,34.81
2022-07-29T10:06:20.833Z,34.37
2022-07-29T10:09:10.005Z,33.78
2022-07-29T10:12:17.391Z,33.19
2022-07-29T10:14:59.022Z,33.02
2022-07-29T10:17:47.246Z,32.52
2022-07-29T10:20:29.019Z,32.23
2022-07-29T10:23:24.980Z,31.93
2022-07-29T10:26:12.982Z,31.75
2022-07-29T10:29:08.966Z,31.66
2022-07-29T10:32:18.002Z,30.73
2022-07-29T10:35:34.149Z,30.25
2022-07-29T10:38:51.964Z,30.77
2022-07-29T10:42:20.101Z,30.81
2022-07-29T10:45:18.969Z,31.01
2022-07-29T10:48:19.190Z,31.24
2022-07-29T10:51:03.916Z,31.16
2022-07-29T10:54:03.058Z,31.22
2022-07-29T10:56:44.951Z,31.41
2022-07-29T10:59:38.975Z,31.46
2022-07-29T11:03:04.544Z,31.39
2022-07-29T11:06:11.959Z,31.30
2022-07-29T11:12:55.960Z,31.42
2022-07-29T11:16:02.166Z,31.39
2022-07-29T11:18:42.910Z,31.36
2022-07-29T11:21:55.096Z,31.22
2022-07-29T11:24:50.427Z,31.30
2022-07-29T11:27:40.666Z,31.32
2022-07-29T11:30:29.908Z,30.77
2022-07-29T11:33:11.147Z,30.56
2022-07-29T11:36:17.141Z,30.59
2022-07-29T11:39:00.178Z,30.94
2022-07-29T11:41:47.889Z,31.12
2022-07-29T11:45:42.563Z,31.29
2022-07-29T11:48:29.034Z,31.27
2022-07-29T11:51:18.885Z,31.26
2022-07-29T11:54:27.256Z,31.46
2022-07-29T11:57:15.862Z,31.34
2022-07-29T12:00:04.766Z,31.51
2022-07-29T12:02:59.945Z,31.41
2022-07-29T12:05:51.982Z,31.36
2022-07-29T12:08:33.886Z,31.23
2022-07-29T12:11:26.070Z,31.09
2022-07-29T12:14:06.863Z,31.07
2022-07-29T12:16:55.209Z,31.24
2022-07-29T12:19:35.862Z,31.23
2022-07-29T12:22:27.266Z,31.18
2022-07-29T12:25:33.060Z,31.37
2022-07-29T12:28:26.433Z,31.51
2022-07-29T12:31:43.070Z,31.63
2022-07-29T12:34:18.452Z,31.71
2022-07-29T12:37:05.829Z,31.50
2022-07-29T12:39:55.836Z,31.26
2022-07-29T12:42:37.146Z,31.44
2022-07-29T12:45:36.809Z,31.51
2022-07-29T12:48:19.045Z,31.60
2022-07-29T12:51:08.979Z,31.47
2022-07-29T12:53:50.215Z,31.18
2022-07-29T12:56:45.523Z,31.14
2022-07-29T12:59:29.032Z,31.26
2022-07-29T13:02:29.849Z,31.48
2022-07-29T13:05:21.794Z,31.66
2022-07-29T13:08:21.946Z,31.60
2022-07-29T13:11:04.039Z,31.52
2022-07-29T13:14:06.830Z,31.52
2022-07-29T13:17:13.132Z,31.38
2022-07-29T13:20:16.778Z,31.11
2022-07-29T13:22:58.027Z,31.05
2022-07-29T13:25:48.773Z,31.11
2022-07-29T13:28:36.756Z,31.15
2022-07-29T13:31:31.772Z,31.15
2022-07-29T13:34:19.847Z,30.89
2022-07-29T13:37:03.193Z,30.85
2022-07-29T13:39:52.888Z,30.75
2022-07-29T13:42:41.743Z,30.77
2022-07-29T13:45:29.786Z,30.68
2022-07-29T13:48:12.219Z,30.37
2022-07-29T13:51:00.747Z,30.22
2022-07-29T13:53:43.962Z,30.16
2022-07-29T13:56:31.734Z,29.98
2022-07-29T13:59:12.971Z,29.85
2022-07-29T14:02:01.187Z,29.86
2022-07-29T14:04:49.769Z,30.05
2022-07-29T14:07:37.966Z,30.06
2022-07-29T14:10:20.692Z,30.04
2022-07-29T14:13:24.439Z,30.00
2022-07-29T14:16:05.928Z,30.07
2022-07-29T14:18:54.720Z,29.96
2022-07-29T14:21:35.946Z,29.81
2022-07-29T14:24:24.697Z,29.96
2022-07-29T14:27:15.709Z,29.93
2022-07-29T14:30:10.706Z,29.85
2022-07-29T14:32:58.677Z,29.73
2022-07-29T14:35:40.270Z,29.65
2022-07-29T14:38:27.681Z,29.61
2022-07-29T14:41:09.894Z,29.75
2022-07-29T14:44:00.661Z,29.70
2022-07-29T14:46:49.490Z,29.67
2022-07-29T14:49:37.875Z,29.73
2022-07-29T14:52:18.704Z,29.87
2022-07-29T14:55:16.258Z,29.84
2022-07-29T14:58:09.691Z,29.73
2022-07-29T15:00:59.746Z,29.64
2022-07-29T15:03:40.882Z,29.56
2022-07-29T15:06:28.638Z,29.44
2022-07-29T15:09:10.844Z,29.25
2022-07-29T15:12:00.076Z,29.13
2022-07-29T15:14:41.215Z,29.08
2022-07-29T15:17:30.656Z,29.18
2022-07-29T15:20:34.602Z,29.32
2022-07-29T15:23:22.633Z,29.48
2022-07-29T15:26:03.862Z,29.47
2022-07-29T15:28:51.607Z,29.39
2022-07-29T15:31:46.711Z,29.29
2022-07-29T15:34:36.585Z,29.34
2022-07-29T15:37:24.669Z,29.15
2022-07-29T15:40:14.602Z,28.99
2022-07-29T15:42:55.831Z,28.72
2022-07-29T15:45:45.642Z,28.57
2022-07-29T15:48:26.809Z,28.49
2022-07-29T15:51:16.590Z,28.39
2022-07-29T15:54:04.590Z,28.23
2022-07-29T15:56:52.591Z,28.00
2022-07-29T15:59:41.697Z,27.87
2022-07-29T16:02:29.818Z,27.67
2022-07-29T16:05:11.579Z,27.57
2022-07-29T16:08:00.801Z,27.27
2022-07-29T16:10:42.549Z,27.23
2022-07-29T16:13:30.557Z,27.35
2022-07-29T16:16:12.845Z,27.26
2022-07-29T16:19:00.532Z,27.02
2022-07-29T16:21:41.793Z,27.26
2022-07-29T16:24:36.535Z,27.25
2022-07-29T16:27:24.534Z,27.14
2022-07-29T16:30:14.575Z,26.97
2022-07-29T16:32:55.751Z,26.90
2022-07-29T16:35:45.528Z,26.84
2022-07-29T16:38:26.862Z,26.70
2022-07-29T16:41:16.597Z,26.78
2022-07-29T16:44:04.515Z,26.85
2022-07-29T16:46:46.933Z,26.78
2022-07-29T16:49:37.603Z,26.72
2022-07-29T16:52:20.000Z,26.57
2022-07-29T16:55:07.533Z,26.26
2022-07-29T16:57:52.679Z,26.22
2022-07-29T17:00:40.562Z,26.22
2022-07-29T17:03:28.610Z,26.07
2022-07-29T17:06:09.691Z,25.99
2022-07-29T17:08:57.502Z,25.90
2022-07-29T17:11:53.544Z,25.96
2022-07-29T17:14:44.478Z,25.94
2022-07-29T17:17:39.404Z,25.92
2022-07-29T17:20:34.461Z,25.93
2022-07-29T17:23:15.652Z,25.85
2022-07-29T17:26:03.444Z,25.65
2022-07-29T17:28:44.663Z,25.43
2022-07-29T17:31:34.507Z,25.22
2022-07-29T17:34:15.646Z,25.10
2022-07-29T17:37:03.462Z,25.06
2022-07-29T17:39:45.753Z,25.03
2022-07-29T17:42:33.436Z,24.89
2022-07-29T17:45:22.414Z,24.92
2022-07-29T17:48:13.430Z,24.97
2022-07-29T17:51:02.424Z,25.06
2022-07-29T17:53:50.475Z,25.06
2022-07-29T17:56:32.642Z,24.96
2022-07-29T17:59:21.428Z,24.87
2022-07-29T18:02:02.701Z,24.88
2022-07-29T18:04:52.399Z,24.77
2022-07-29T18:07:33.840Z,24.75
2022-07-29T18:10:21.405Z,24.73
2022-07-29T18:13:02.867Z,24.64
2022-07-29T18:15:51.459Z,24.59
2022-07-29T18:18:32.575Z,24.61
2022-07-29T18:21:43.597Z,24.56
2022-07-29T18:24:31.372Z,24.43
2022-07-29T18:27:20.224Z,24.36
2022-07-29T18:30:08.375Z,24.31
2022-07-29T18:33:19.605Z,24.19
2022-07-29T18:36:07.672Z,24.08
2022-07-29T18:39:01.579Z,24.01
2022-07-29T18:41:46.057Z,24.02
2022-07-29T18:44:43.874Z,23.97
2022-07-29T18:47:32.218Z,23.79
2022-07-29T18:50:23.693Z,23.63
2022-07-29T18:53:14.336Z,23.57
2022-07-29T18:56:04.321Z,23.53
2022-07-29T18:58:52.326Z,23.47
2022-07-29T19:01:40.405Z,23.30
2022-07-29T19:04:22.616Z,23.20
2022-07-29T19:07:11.321Z,23.05
2022-07-29T19:09:52.623Z,22.93
2022-07-29T19:12:42.330Z,22.86
2022-07-29T19:15:30.473Z,22.75
2022-07-29T19:18:20.314Z,22.63
2022-07-29T19:21:08.454Z,22.56
2022-07-29T19:24:00.403Z,22.50
2022-07-29T19:26:54.312Z,22.41
2022-07-29T19:29:50.278Z,22.33
2022-07-29T19:32:38.277Z,22.24
2022-07-29T19:35:32.263Z,22.17
2022-07-29T19:38:14.409Z,22.12
2022-07-29T19:41:02.429Z,22.10
2022-07-29T19:43:53.086Z,22.09
2022-07-29T19:46:36.315Z,22.10
2022-07-29T19:49:18.038Z,22.03
2022-07-29T19:52:06.253Z,22.00
2022-07-29T19:54:54.456Z,21.95
2022-07-29T19:57:40.866Z,21.94
2022-07-29T20:00:25.273Z,21.90
2022-07-29T20:03:15.323Z,21.85
2022-07-29T20:06:03.437Z,21.77
2022-07-29T20:08:45.336Z,21.70
2022-07-29T20:11:29.867Z,21.65
2022-07-29T20:14:18.241Z,21.55
2022-07-29T20:17:06.237Z,21.45
2022-07-29T20:19:56.213Z,21.40
2022-07-29T20:22:44.751Z,21.35
2022-07-29T20:25:25.206Z,21.33
2022-07-29T20:28:14.203Z,21.32
2022-07-29T20:31:02.245Z,21.29
2022-07-29T20:33:43.930Z,21.26
2022-07-29T20:36:33.267Z,21.23
2022-07-29T20:39:21.189Z,21.18
2022-07-29T20:42:09.239Z,21.12
2022-07-29T20:44:58.128Z,21.12
2022-07-29T20:47:39.236Z,21.10
2022-07-29T20:50:29.282Z,21.07
2022-07-29T20:53:12.371Z,21.02
2022-07-29T20:56:00.287Z,20.98
2022-07-29T20:58:42.796Z,20.94
2022-07-29T21:01:30.359Z,20.89
2022-07-29T21:04:12.370Z,20.85
2022-07-29T21:07:01.527Z,20.84
2022-07-29T21:09:51.165Z,20.90
2022-07-29T21:12:39.341Z,20.88
2022-07-29T21:15:23.145Z,20.87
2022-07-29T21:18:26.815Z,20.85
2022-07-29T21:21:09.148Z,20.85
2022-07-29T21:23:57.336Z,20.87
2022-07-29T21:26:40.109Z,20.91
2022-07-29T21:29:27.185Z,20.93
2022-07-29T21:32:27.593Z,20.90
2022-07-29T21:35:23.415Z,20.84
2022-07-29T21:38:20.109Z,20.76
2022-07-29T21:41:10.864Z,20.69
2022-07-29T21:43:54.228Z,20.60
2022-07-29T21:46:46.319Z,20.42
2022-07-29T21:49:27.281Z,20.38
2022-07-29T21:52:09.181Z,20.36
2022-07-29T21:54:57.157Z,20.35
2022-07-29T21:57:45.288Z,20.35
2022-07-29T22:00:29.084Z,20.36
2022-07-29T22:03:18.154Z,20.37
2022-07-29T22:06:06.061Z,20.34
2022-07-29T22:08:54.305Z,20.27
2022-07-29T22:11:35.200Z,20.21
2022-07-29T22:14:25.148Z,20.18
2022-07-29T22:17:08.470Z,20.23
2022-07-29T22:19:56.072Z,20.27
2022-07-29T22:22:37.342Z,20.28
2022-07-29T22:25:25.042Z,20.28
2022-07-29T22:28:06.277Z,20.28
2022-07-29T22:31:01.104Z,20.27
2022-07-29T22:33:50.262Z,20.24
2022-07-29T22:36:32.153Z,20.23
2022-07-29T22:39:20.291Z,20.24
2022-07-29T22:42:02.063Z,20.18
2022-07-29T22:44:43.846Z,20.02
2022-07-29T22:47:48.040Z,19.87
2022-07-29T22:50:31.266Z,19.77
2022-07-29T22:53:19.006Z,19.71
2022-07-29T22:56:07.319Z,19.56
2022-07-29T22:58:48.115Z,19.52
2022-07-29T23:01:38.109Z,19.57
2022-07-29T23:04:19.090Z,19.58
2022-07-29T23:07:02.384Z,19.65
2022-07-29T23:09:49.991Z,19.70
2022-07-29T23:12:31.859Z,19.71
2022-07-29T23:15:20.982Z,19.72
2022-07-29T23:18:17.668Z,19.73
2022-07-29T23:20:59.157Z,19.76
2022-07-29T23:23:49.173Z,19.75
2022-07-29T23:26:29.981Z,19.77
2022-07-29T23:29:11.728Z,19.79
2022-07-29T23:31:59.966Z,19.75
2022-07-29T23:34:48.163Z,19.68
2022-07-29T23:37:28.925Z,19.57
2022-07-29T23:40:20.004Z,19.50
2022-07-29T23:43:08.601Z,19.45
2022-07-29T23:45:58.202Z,19.42
2022-07-29T23:48:39.983Z,19.40
2022-07-29T23:51:29.182Z,19.40
2022-07-29T23:54:10.114Z,19.40
2022-07-29T23:57:00.096Z,19.42
2022-07-29T23:59:47.905Z,19.44
